createdAt,value
2023-05-14T00:01:58.586Z,13.90
2023-05-14T00:04:26.075Z,14.00
2023-05-14T00:06:53.480Z,14.00
2023-05-14T00:09:20.973Z,14.00
2023-05-14T00:11:48.414Z,14.00
2023-05-14T00:14:15.846Z,14.00
2023-05-14T00:16:43.257Z,14.00
2023-05-14T00:19:11.283Z,14.00
2023-05-14T00:21:38.805Z,14.00
2023-05-14T00:24:06.461Z,14.00
2023-05-14T00:26:33.911Z,14.00
2023-05-14T00:29:01.466Z,14.00
2023-05-14T00:31:28.881Z,14.00
2023-05-14T00:33:56.488Z,14.00
2023-05-14T00:36:23.955Z,14.10
2023-05-14T00:38:51.605Z,14.10
2023-05-14T00:41:19.072Z,14.10
2023-05-14T00:43:46.518Z,14.10
2023-05-14T00:46:14.987Z,14.10
2023-05-14T00:48:42.510Z,14.10
2023-05-14T00:51:10.085Z,14.10
2023-05-14T00:53:37.768Z,14.10
2023-05-14T00:56:05.846Z,14.10
2023-05-14T00:58:33.273Z,14.00
2023-05-14T01:01:01.069Z,14.00
2023-05-14T01:03:30.742Z,14.00
2023-05-14T01:06:35.762Z,14.00
2023-05-14T01:09:12.537Z,13.90
2023-05-14T01:12:00.954Z,14.00
2023-05-14T01:15:02.110Z,14.00
2023-05-14T01:17:32.874Z,14.00
2023-05-14T01:20:00.794Z,14.00
2023-05-14T01:22:28.252Z,13.90
2023-05-14T01:24:55.966Z,13.90
2023-05-14T01:27:36.069Z,13.90
2023-05-14T01:30:15.220Z,13.80
2023-05-14T01:32:47.250Z,13.80
2023-05-14T01:35:15.464Z,13.80
2023-05-14T01:37:44.645Z,13.80
2023-05-14T01:40:14.404Z,13.70
2023-05-14T01:42:43.313Z,13.70
2023-05-14T01:45:11.078Z,13.60
2023-05-14T01:47:38.576Z,13.60
2023-05-14T01:50:06.532Z,13.60
2023-05-14T01:52:34.840Z,13.60
2023-05-14T01:55:02.320Z,13.60
2023-05-14T01:57:29.755Z,13.60
2023-05-14T01:59:57.393Z,13.60
2023-05-14T02:02:24.810Z,13.60
2023-05-14T02:04:53.303Z,13.60
2023-05-14T02:07:20.722Z,13.60
2023-05-14T02:09:48.141Z,13.60
2023-05-14T02:12:15.680Z,13.50
2023-05-14T02:14:43.230Z,13.50
2023-05-14T02:17:10.590Z,13.40
2023-05-14T02:19:38.126Z,13.30
2023-05-14T02:22:05.683Z,13.30
2023-05-14T02:24:34.169Z,13.30
2023-05-14T02:27:01.704Z,13.30
2023-05-14T02:29:29.150Z,13.30
2023-05-14T02:31:56.985Z,13.30
2023-05-14T02:34:25.516Z,13.30
2023-05-14T02:36:52.971Z,13.20
2023-05-14T02:39:20.486Z,13.30
2023-05-14T02:41:47.973Z,13.30
2023-05-14T02:44:15.488Z,13.30
2023-05-14T02:46:43.444Z,13.30
2023-05-14T02:49:11.000Z,13.30
2023-05-14T02:51:38.485Z,13.40
2023-05-14T02:54:06.138Z,13.30
2023-05-14T02:56:33.558Z,13.30
2023-05-14T02:59:01.054Z,13.30
2023-05-14T03:01:29.180Z,13.30
2023-05-14T03:03:57.178Z,13.30
2023-05-14T03:06:24.626Z,13.30
2023-05-14T03:08:52.048Z,13.30
2023-05-14T03:11:19.508Z,13.30
2023-05-14T03:13:46.923Z,13.30
2023-05-14T03:16:14.408Z,13.30
2023-05-14T03:18:41.902Z,13.20
2023-05-14T03:21:09.929Z,13.30
2023-05-14T03:23:37.494Z,13.30
2023-05-14T03:26:05.129Z,13.30
2023-05-14T03:28:32.633Z,13.30
2023-05-14T03:31:01.021Z,13.30
2023-05-14T03:33:28.953Z,13.30
2023-05-14T03:35:56.355Z,13.40
2023-05-14T03:38:23.792Z,13.30
2023-05-14T03:40:51.358Z,13.30
2023-05-14T03:43:18.747Z,13.30
2023-05-14T03:45:46.970Z,13.30
2023-05-14T03:48:17.509Z,13.20
2023-05-14T03:50:45.637Z,13.20
2023-05-14T03:53:13.371Z,13.20
2023-05-14T03:55:40.837Z,13.20
2023-05-14T03:58:14.221Z,13.20
2023-05-14T04:00:43.105Z,13.20
2023-05-14T04:03:12.051Z,13.30
2023-05-14T04:05:39.561Z,13.20
2023-05-14T04:08:07.288Z,13.20
2023-05-14T04:10:34.794Z,13.20
2023-05-14T04:13:02.231Z,13.20
2023-05-14T04:15:33.333Z,13.30
2023-05-14T04:18:00.793Z,13.20
2023-05-14T04:20:28.356Z,13.20
2023-05-14T04:22:56.328Z,13.20
2023-05-14T04:25:24.138Z,13.20
2023-05-14T04:27:51.573Z,13.10
2023-05-14T04:30:19.135Z,13.10
2023-05-14T04:32:46.699Z,13.10
2023-05-14T04:35:14.146Z,13.10
2023-05-14T04:37:41.710Z,13.10
2023-05-14T04:40:11.334Z,13.10
2023-05-14T04:42:39.473Z,13.00
2023-05-14T04:45:07.316Z,13.10
2023-05-14T04:47:34.942Z,13.10
2023-05-14T04:50:02.613Z,13.10
2023-05-14T04:52:30.035Z,13.10
2023-05-14T04:54:57.458Z,13.20
2023-05-14T04:57:24.877Z,13.20
2023-05-14T04:59:52.343Z,13.20
2023-05-14T05:02:19.868Z,13.20
2023-05-14T05:04:47.383Z,13.20
2023-05-14T05:07:14.851Z,13.20
2023-05-14T05:09:44.027Z,13.30
2023-05-14T05:12:11.528Z,13.20
2023-05-14T05:14:38.886Z,13.30
2023-05-14T05:17:06.367Z,13.30
2023-05-14T05:19:42.908Z,13.30
2023-05-14T05:22:11.991Z,13.30
2023-05-14T05:24:39.727Z,13.40
2023-05-14T05:27:07.160Z,13.30
2023-05-14T05:29:35.381Z,13.40
2023-05-14T05:32:02.975Z,13.40
2023-05-14T05:34:30.512Z,13.40
2023-05-14T05:36:58.035Z,13.40
2023-05-14T05:39:25.542Z,13.40
2023-05-14T05:41:54.397Z,13.40
2023-05-14T05:44:21.880Z,13.50
2023-05-14T05:46:50.958Z,13.50
2023-05-14T05:49:18.580Z,13.50
2023-05-14T05:51:45.968Z,13.50
2023-05-14T05:54:13.405Z,13.50
2023-05-14T05:56:41.003Z,13.60
2023-05-14T05:59:08.502Z,13.60
2023-05-14T06:01:36.234Z,13.60
2023-05-14T06:04:05.712Z,13.60
2023-05-14T06:06:33.276Z,13.70
2023-05-14T06:09:02.005Z,13.70
2023-05-14T06:11:29.500Z,13.70
2023-05-14T06:13:57.190Z,13.70
2023-05-14T06:16:24.989Z,13.80
2023-05-14T06:18:53.090Z,13.80
2023-05-14T06:21:20.799Z,13.80
2023-05-14T06:23:48.266Z,13.80
2023-05-14T06:26:15.769Z,13.80
2023-05-14T06:28:43.279Z,13.80
2023-05-14T06:31:10.835Z,13.90
2023-05-14T06:33:38.360Z,13.90
2023-05-14T06:36:07.673Z,13.90
2023-05-14T06:38:35.216Z,13.90
2023-05-14T06:41:02.757Z,13.90
2023-05-14T06:43:30.225Z,14.00
2023-05-14T06:45:57.669Z,14.00
2023-05-14T06:48:27.723Z,14.10
2023-05-14T06:50:55.884Z,14.10
2023-05-14T06:53:23.435Z,14.30
2023-05-14T06:55:50.915Z,14.40
2023-05-14T06:58:18.373Z,14.50
2023-05-14T07:00:46.033Z,14.50
2023-05-14T07:03:13.468Z,14.50
2023-05-14T07:05:41.326Z,14.50
2023-05-14T07:08:08.826Z,14.50
2023-05-14T07:10:36.382Z,14.50
2023-05-14T07:13:03.785Z,14.50
2023-05-14T07:15:31.292Z,14.60
2023-05-14T07:17:58.783Z,14.60
2023-05-14T07:20:26.500Z,14.50
2023-05-14T07:22:54.063Z,14.50
2023-05-14T07:25:21.528Z,14.40
2023-05-14T07:27:49.225Z,14.50
2023-05-14T07:30:16.716Z,14.60
2023-05-14T07:32:44.586Z,14.60
2023-05-14T07:35:12.090Z,14.60
2023-05-14T07:37:39.564Z,14.40
2023-05-14T07:40:07.687Z,14.30
2023-05-14T07:42:37.040Z,14.40
2023-05-14T07:45:05.971Z,14.40
2023-05-14T07:47:33.531Z,14.50
2023-05-14T07:50:01.025Z,14.60
2023-05-14T07:52:28.545Z,14.50
2023-05-14T07:54:56.025Z,14.50
2023-05-14T07:57:23.507Z,14.50
2023-05-14T07:59:50.996Z,14.40
2023-05-14T08:02:18.494Z,14.30
2023-05-14T08:04:46.038Z,14.40
2023-05-14T08:07:13.648Z,14.60
2023-05-14T08:09:41.105Z,14.60
2023-05-14T08:12:08.713Z,14.60
2023-05-14T08:14:36.162Z,14.60
2023-05-14T08:17:03.929Z,14.60
2023-05-14T08:19:31.473Z,14.70
2023-05-14T08:21:58.905Z,14.70
2023-05-14T08:24:26.348Z,14.80
2023-05-14T08:26:53.776Z,14.70
2023-05-14T08:29:21.542Z,14.70
2023-05-14T08:31:50.200Z,14.70
2023-05-14T08:34:18.072Z,14.70
2023-05-14T08:36:45.553Z,14.70
2023-05-14T08:39:12.942Z,14.70
2023-05-14T08:41:41.206Z,14.60
2023-05-14T08:44:18.733Z,14.60
2023-05-14T08:46:46.790Z,14.50
2023-05-14T08:49:29.163Z,14.40
2023-05-14T08:51:56.497Z,14.40
2023-05-14T08:54:26.369Z,14.40
2023-05-14T08:56:53.985Z,14.40
2023-05-14T08:59:21.425Z,14.40
2023-05-14T09:01:51.738Z,14.40
2023-05-14T09:04:24.747Z,14.40
2023-05-14T09:06:53.940Z,14.40
2023-05-14T09:09:22.625Z,14.50
2023-05-14T09:11:51.756Z,14.40
2023-05-14T09:14:20.234Z,14.50
2023-05-14T09:16:49.868Z,14.50
2023-05-14T09:19:21.347Z,14.60
2023-05-14T09:21:50.117Z,14.70
2023-05-14T09:24:21.462Z,14.70
2023-05-14T09:26:53.914Z,14.60
2023-05-14T09:29:21.727Z,14.70
2023-05-14T09:31:53.685Z,14.80
2023-05-14T09:34:29.371Z,14.80
2023-05-14T09:37:00.629Z,14.90
2023-05-14T09:39:28.830Z,15.00
2023-05-14T09:41:57.919Z,15.00
2023-05-14T09:44:26.205Z,15.00
2023-05-14T09:46:54.290Z,15.10
2023-05-14T09:49:21.962Z,15.20
2023-05-14T09:51:50.062Z,15.30
2023-05-14T09:54:17.668Z,15.20
2023-05-14T09:56:45.263Z,15.30
2023-05-14T09:59:12.905Z,15.30
2023-05-14T10:01:43.741Z,15.50
2023-05-14T10:04:11.902Z,15.40
2023-05-14T10:06:40.397Z,15.40
2023-05-14T10:09:13.850Z,15.40
2023-05-14T10:11:47.038Z,15.40
2023-05-14T10:14:32.714Z,15.40
2023-05-14T10:17:01.860Z,15.50
2023-05-14T10:19:34.190Z,15.60
2023-05-14T10:22:05.091Z,15.70
2023-05-14T10:24:33.960Z,15.70
2023-05-14T10:27:01.485Z,16.00
2023-05-14T10:29:37.437Z,16.20
2023-05-14T10:32:07.165Z,15.90
2023-05-14T10:34:38.511Z,16.10
2023-05-14T10:37:11.359Z,16.10
2023-05-14T10:39:59.085Z,16.40
2023-05-14T10:42:28.971Z,16.40
2023-05-14T10:45:10.827Z,16.40
2023-05-14T10:47:40.214Z,16.50
2023-05-14T10:50:10.678Z,16.70
2023-05-14T10:52:38.521Z,16.60
2023-05-14T10:55:07.778Z,16.60
2023-05-14T10:57:38.135Z,16.70
2023-05-14T11:00:08.799Z,16.50
2023-05-14T11:02:38.414Z,16.80
2023-05-14T11:05:11.672Z,16.60
2023-05-14T11:07:41.363Z,16.80
2023-05-14T11:10:09.648Z,17.10
2023-05-14T11:12:39.831Z,17.10
2023-05-14T11:15:09.842Z,17.30
2023-05-14T11:17:38.883Z,17.30
2023-05-14T11:20:07.291Z,17.10
2023-05-14T11:22:35.874Z,17.40
2023-05-14T11:25:03.677Z,17.50
2023-05-14T11:27:34.788Z,17.60
2023-05-14T11:30:02.555Z,17.60
2023-05-14T11:32:35.072Z,17.60
2023-05-14T11:35:02.812Z,17.50
2023-05-14T11:37:30.855Z,17.30
2023-05-14T11:40:00.661Z,17.40
2023-05-14T11:42:28.216Z,17.30
2023-05-14T11:44:55.601Z,17.50
2023-05-14T11:47:23.336Z,17.40
2023-05-14T11:49:50.906Z,17.50
2023-05-14T11:52:22.023Z,17.40
2023-05-14T11:54:50.814Z,17.40
2023-05-14T11:57:21.061Z,17.50
2023-05-14T11:59:55.730Z,17.30
2023-05-14T12:02:23.472Z,17.20
2023-05-14T12:04:54.274Z,17.40
2023-05-14T12:07:21.664Z,17.70
2023-05-14T12:09:49.955Z,17.90
2023-05-14T12:12:22.584Z,17.50
2023-05-14T12:14:51.061Z,17.40
2023-05-14T12:17:22.828Z,17.40
2023-05-14T12:19:52.162Z,17.30
2023-05-14T12:22:23.295Z,17.50
2023-05-14T12:24:58.572Z,17.40
2023-05-14T12:27:27.720Z,17.40
2023-05-14T12:32:41.053Z,17.40
2023-05-14T12:35:09.186Z,17.30
2023-05-14T12:37:39.264Z,17.50
2023-05-14T12:40:10.226Z,17.40
2023-05-14T12:42:37.758Z,17.40
2023-05-14T12:45:21.502Z,17.30
2023-05-14T12:47:49.217Z,17.30
2023-05-14T12:50:16.696Z,17.20
2023-05-14T12:52:44.284Z,17.00
2023-05-14T12:55:11.745Z,16.80
2023-05-14T12:57:39.578Z,16.60
2023-05-14T13:00:12.987Z,16.40
2023-05-14T13:02:43.383Z,16.40
2023-05-14T13:05:14.480Z,16.50
2023-05-14T13:07:42.364Z,16.50
2023-05-14T13:10:10.358Z,16.40
2023-05-14T13:12:38.702Z,16.50
2023-05-14T13:15:06.765Z,16.30
2023-05-14T13:17:34.233Z,16.10
2023-05-14T13:20:01.653Z,16.00
2023-05-14T13:22:29.568Z,15.80
2023-05-14T13:24:56.937Z,15.90
2023-05-14T13:27:24.364Z,16.00
2023-05-14T13:29:52.146Z,15.90
2023-05-14T13:32:19.546Z,16.10
2023-05-14T13:34:46.966Z,16.20
2023-05-14T13:37:14.443Z,16.10
2023-05-14T13:39:41.851Z,16.30
2023-05-14T13:42:09.374Z,16.10
2023-05-14T13:44:36.999Z,16.00
2023-05-14T13:47:04.855Z,16.00
2023-05-14T13:49:32.386Z,16.10
2023-05-14T13:51:59.938Z,15.90
2023-05-14T13:54:27.434Z,15.80
2023-05-14T13:56:54.910Z,15.80
2023-05-14T13:59:23.693Z,15.80
2023-05-14T14:01:51.765Z,15.80
2023-05-14T14:04:20.026Z,15.90
2023-05-14T14:06:47.540Z,15.90
2023-05-14T14:09:15.059Z,16.00
2023-05-14T14:11:42.570Z,15.90
2023-05-14T14:14:10.058Z,15.90
2023-05-14T14:16:37.523Z,16.00
2023-05-14T14:19:05.287Z,16.10
2023-05-14T14:21:33.313Z,16.10
2023-05-14T14:24:01.303Z,16.20
2023-05-14T14:26:29.295Z,16.30
2023-05-14T14:28:58.690Z,16.40
2023-05-14T14:31:26.221Z,16.40
2023-05-14T14:33:53.643Z,16.40
2023-05-14T14:36:21.087Z,16.50
2023-05-14T14:38:48.531Z,16.80
2023-05-14T14:41:16.462Z,16.90
2023-05-14T14:43:44.460Z,16.90
2023-05-14T14:46:11.921Z,16.80
2023-05-14T14:48:39.876Z,16.70
2023-05-14T14:51:08.552Z,16.60
2023-05-14T14:53:37.044Z,16.70
2023-05-14T14:56:04.902Z,16.60
2023-05-14T14:58:32.752Z,16.60
2023-05-14T15:01:01.470Z,16.80
2023-05-14T15:03:29.296Z,16.90
2023-05-14T15:05:56.936Z,17.00
2023-05-14T15:08:28.014Z,16.70
2023-05-14T15:10:56.584Z,16.70
2023-05-14T15:13:24.757Z,16.70
2023-05-14T15:15:55.093Z,16.60
2023-05-14T15:18:22.595Z,16.50
2023-05-14T15:20:50.043Z,16.20
2023-05-14T15:23:17.694Z,16.00
2023-05-14T15:25:45.408Z,15.90
2023-05-14T15:28:12.851Z,15.80
2023-05-14T15:30:40.551Z,15.80
2023-05-14T15:33:08.811Z,15.70
2023-05-14T15:35:36.709Z,15.70
2023-05-14T15:38:04.138Z,15.70
2023-05-14T15:40:33.185Z,15.50
2023-05-14T15:43:00.948Z,15.40
2023-05-14T15:45:28.473Z,15.50
2023-05-14T15:47:55.941Z,15.50
2023-05-14T15:50:23.703Z,15.50
2023-05-14T15:52:51.356Z,15.50
2023-05-14T15:55:18.996Z,15.50
2023-05-14T15:57:46.465Z,15.40
2023-05-14T16:00:14.529Z,15.40
2023-05-14T16:02:42.316Z,15.40
2023-05-14T16:05:10.160Z,15.30
2023-05-14T16:07:38.314Z,15.30
2023-05-14T16:10:06.673Z,15.30
2023-05-14T16:12:34.368Z,15.30
2023-05-14T16:15:01.849Z,15.30
2023-05-14T16:17:31.085Z,15.20
2023-05-14T16:20:00.845Z,15.20
2023-05-14T16:22:29.430Z,15.10
2023-05-14T16:24:56.813Z,15.10
2023-05-14T16:27:24.499Z,15.00
2023-05-14T16:29:51.928Z,14.90
2023-05-14T16:32:20.059Z,14.80
2023-05-14T16:34:49.821Z,14.80
2023-05-14T16:37:19.923Z,14.70
2023-05-14T16:39:47.431Z,14.60
2023-05-14T16:42:15.077Z,14.60
2023-05-14T16:44:42.514Z,14.50
2023-05-14T16:47:10.455Z,14.50
2023-05-14T16:49:37.840Z,14.50
2023-05-14T16:52:05.755Z,14.40
2023-05-14T16:54:33.240Z,14.20
2023-05-14T16:57:00.708Z,14.10
2023-05-14T16:59:28.167Z,14.00
2023-05-14T17:01:56.086Z,14.00
2023-05-14T17:04:26.524Z,14.00
2023-05-14T17:06:54.186Z,14.00
2023-05-14T17:09:21.703Z,14.00
2023-05-14T17:11:49.153Z,14.00
2023-05-14T17:14:16.614Z,14.00
2023-05-14T17:16:44.039Z,14.00
2023-05-14T17:19:11.495Z,14.00
2023-05-14T17:21:38.955Z,14.00
2023-05-14T17:24:06.523Z,14.00
2023-05-14T17:26:34.071Z,14.00
2023-05-14T17:29:02.236Z,14.00
2023-05-14T17:31:29.663Z,14.10
2023-05-14T17:33:57.105Z,14.10
2023-05-14T17:36:25.011Z,14.10
2023-05-14T17:38:52.594Z,14.10
2023-05-14T17:41:20.164Z,14.10
2023-05-14T17:43:47.625Z,14.00
2023-05-14T17:46:15.131Z,14.00
2023-05-14T17:48:42.574Z,14.00
2023-05-14T17:51:10.016Z,14.00
2023-05-14T17:53:37.517Z,14.00
2023-05-14T17:56:05.691Z,14.10
2023-05-14T17:58:33.302Z,14.00
2023-05-14T18:01:00.861Z,14.00
2023-05-14T18:03:28.494Z,14.00
2023-05-14T18:05:56.212Z,14.00
2023-05-14T18:08:23.606Z,14.00
2023-05-14T18:10:50.963Z,14.00
2023-05-14T18:13:18.348Z,14.00
2023-05-14T18:15:45.859Z,13.90
2023-05-14T18:18:13.506Z,13.90
2023-05-14T18:20:40.912Z,13.90
2023-05-14T18:23:08.399Z,13.80
2023-05-14T18:25:35.944Z,13.80
2023-05-14T18:28:03.515Z,13.80
2023-05-14T18:30:31.035Z,13.80
2023-05-14T18:32:59.744Z,13.80
2023-05-14T18:35:27.893Z,13.80
2023-05-14T18:37:55.598Z,13.80
2023-05-14T18:40:22.986Z,13.80
2023-05-14T18:42:50.485Z,13.80
2023-05-14T18:45:17.937Z,13.80
2023-05-14T18:47:45.467Z,13.80
2023-05-14T18:50:12.904Z,13.80
2023-05-14T18:52:40.335Z,13.80
2023-05-14T18:55:08.254Z,13.70
2023-05-14T18:57:36.990Z,13.70
2023-05-14T19:00:05.230Z,13.70
2023-05-14T19:02:32.811Z,13.70
2023-05-14T19:05:00.289Z,13.70
2023-05-14T19:07:27.859Z,13.70
2023-05-14T19:09:55.447Z,13.70
2023-05-14T19:12:22.820Z,13.60
2023-05-14T19:14:50.256Z,13.60
2023-05-14T19:17:19.215Z,13.60
2023-05-14T19:19:47.967Z,13.60
2023-05-14T19:22:15.410Z,13.50
2023-05-14T19:24:42.907Z,13.50
2023-05-14T19:27:10.422Z,13.50
2023-05-14T19:29:37.857Z,13.40
2023-05-14T19:32:05.938Z,13.40
2023-05-14T19:34:33.431Z,13.40
2023-05-14T19:37:01.123Z,13.40
2023-05-14T19:39:28.677Z,13.40
2023-05-14T19:41:56.090Z,13.40
2023-05-14T19:44:23.576Z,13.40
2023-05-14T19:46:51.370Z,13.40
2023-05-14T19:49:18.831Z,13.50
2023-05-14T19:51:46.165Z,13.50
2023-05-14T19:54:13.696Z,13.40
2023-05-14T19:56:41.226Z,13.40
2023-05-14T19:59:08.644Z,13.40
2023-05-14T20:01:36.210Z,13.40
2023-05-14T20:04:03.911Z,13.40
2023-05-14T20:06:32.086Z,13.40
2023-05-14T20:09:00.274Z,13.30
2023-05-14T20:11:27.890Z,13.40
2023-05-14T20:13:55.322Z,13.40
2023-05-14T20:16:23.501Z,13.40
2023-05-14T20:18:53.402Z,13.50
2023-05-14T20:21:20.867Z,13.40
2023-05-14T20:23:48.331Z,13.40
2023-05-14T20:26:16.229Z,13.40
2023-05-14T20:28:43.706Z,13.40
2023-05-14T20:31:11.204Z,13.40
2023-05-14T20:33:38.666Z,13.40
2023-05-14T20:36:06.617Z,13.40
2023-05-14T20:38:35.031Z,13.40
2023-05-14T20:41:02.939Z,13.40
2023-05-14T20:43:30.379Z,13.40
2023-05-14T20:46:01.176Z,13.40
2023-05-14T20:48:28.780Z,13.40
2023-05-14T20:50:56.133Z,13.40
2023-05-14T20:53:25.331Z,13.40
2023-05-14T20:55:52.841Z,13.40
2023-05-14T20:58:20.941Z,13.40
2023-05-14T21:00:48.397Z,13.40
2023-05-14T21:03:15.953Z,13.40
2023-05-14T21:05:43.816Z,13.30
2023-05-14T21:08:11.432Z,13.40
2023-05-14T21:10:38.856Z,13.40
2023-05-14T21:13:07.166Z,13.40
2023-05-14T21:15:34.648Z,13.40
2023-05-14T21:18:03.122Z,13.40
2023-05-14T21:20:30.572Z,13.40
2023-05-14T21:22:57.888Z,13.40
2023-05-14T21:25:25.777Z,13.40
2023-05-14T21:27:53.686Z,13.40
2023-05-14T21:30:21.679Z,13.40
2023-05-14T21:32:49.153Z,13.40
2023-05-14T21:35:16.758Z,13.40
2023-05-14T21:37:44.292Z,13.40
2023-05-14T21:40:12.546Z,13.40
2023-05-14T21:42:40.736Z,13.30
2023-05-14T21:45:08.633Z,13.30
2023-05-14T21:47:37.077Z,13.30
2023-05-14T21:50:05.761Z,13.20
2023-05-14T21:52:33.575Z,13.00
2023-05-14T21:55:01.078Z,13.10
2023-05-14T21:57:30.015Z,13.10
2023-05-14T21:59:59.420Z,13.10
2023-05-14T22:02:26.839Z,13.10
2023-05-14T22:04:54.296Z,13.00
2023-05-14T22:07:21.782Z,13.10
2023-05-14T22:09:50.147Z,13.10
2023-05-14T22:12:17.796Z,13.00
2023-05-14T22:14:45.945Z,13.10
2023-05-14T22:17:13.448Z,13.10
2023-05-14T22:19:41.012Z,13.00
2023-05-14T22:22:08.680Z,13.00
2023-05-14T22:24:36.181Z,13.00
2023-05-14T22:27:03.787Z,13.00
2023-05-14T22:29:31.655Z,13.00
2023-05-14T22:31:59.131Z,13.00
2023-05-14T22:34:26.609Z,13.00
2023-05-14T22:36:54.035Z,13.00
2023-05-14T22:39:21.660Z,13.00
2023-05-14T22:41:54.860Z,13.00
2023-05-14T22:44:26.049Z,13.00
2023-05-14T22:46:54.698Z,13.00
2023-05-14T22:49:22.206Z,13.00
2023-05-14T22:51:54.220Z,12.90
2023-05-14T22:54:21.609Z,12.90
2023-05-14T22:56:49.237Z,12.90
2023-05-14T22:59:16.733Z,12.90
2023-05-14T23:01:44.233Z,12.90
2023-05-14T23:04:11.694Z,12.90
2023-05-14T23:06:39.226Z,12.80
2023-05-14T23:09:06.643Z,12.70
2023-05-14T23:11:34.106Z,12.60
2023-05-14T23:14:01.555Z,12.60
2023-05-14T23:16:29.027Z,12.50
2023-05-14T23:18:56.568Z,12.50
2023-05-14T23:21:24.124Z,12.40
2023-05-14T23:23:51.852Z,12.40
2023-05-14T23:26:19.358Z,12.30
2023-05-14T23:28:47.473Z,12.30
2023-05-14T23:31:14.974Z,12.40
2023-05-14T23:33:44.603Z,12.50
2023-05-14T23:36:12.216Z,12.50
2023-05-14T23:38:40.727Z,12.50
2023-05-14T23:41:08.306Z,12.50
2023-05-14T23:43:36.078Z,12.50
2023-05-14T23:46:04.066Z,12.50
2023-05-14T23:48:31.602Z,12.50
2023-05-14T23:50:59.095Z,12.50
2023-05-14T23:53:26.590Z,12.50
2023-05-14T23:55:54.189Z,12.40
2023-05-14T23:58:21.653Z,12.40
